Time;durP1;ratioP1;P1;durP2;ratioP2;P2;SDS_P1;SDS_P2;PMS_P1;PMS_P2;Temp;Humidity;BMP_temperature;BMP_pressure;BME280_temperature;BME280_humidity;BME280_pressure;Samples;Min_cycle;Max_cycle;Signal;HPM_P1;HPM_P2
2022/01/01 00:00:06;;;;;;;54.08;13.38;;;11.20;99.90;;;;;;5058743;28;20150;-86
2022/01/01 00:02:31;;;;;;;79.55;16.23;;;11.60;99.90;;;;;;5075322;28;20069;-86
2022/01/01 00:04:58;;;;;;;73.82;12.48;;;12.30;99.90;;;;;;5075689;28;20055;-86
2022/01/01 00:07:24;;;;;;;77.35;13.13;;;11.10;99.90;;;;;;5075913;28;20052;-86
2022/01/01 00:09:50;;;;;;;71.15;12.60;;;11.50;99.90;;;;;;5075556;28;20459;-86
2022/01/01 00:12:16;;;;;;;68.68;13.25;;;10.70;99.90;;;;;;5075070;28;20128;-86
2022/01/01 00:14:41;;;;;;;78.00;15.43;;;11.20;99.90;;;;;;5075300;28;20093;-86
2022/01/01 00:17:08;;;;;;;66.82;14.05;;;11.40;99.90;;;;;;5075141;28;20135;-86
2022/01/01 00:19:33;;;;;;;73.07;18.55;;;11.40;99.90;;;;;;5057452;28;20044;-86
2022/01/01 00:22:01;;;;;;;68.47;16.73;;;11.30;99.90;;;;;;5093237;28;20093;-86
2022/01/01 00:24:26;;;;;;;67.22;13.88;;;11.60;99.90;;;;;;5075578;28;20063;-85
2022/01/01 00:26:52;;;;;;;65.50;13.63;;;11.00;99.90;;;;;;5058286;28;20040;-86
2022/01/01 00:29:19;;;;;;;99.90;17.45;;;10.40;99.90;;;;;;5075366;28;20040;-86
2022/01/01 00:31:45;;;;;;;96.75;17.73;;;9.60;99.90;;;;;;5058069;28;20040;-86
2022/01/01 00:35:02;;;;;;;73.82;17.30;;;9.60;99.90;;;;;;5073134;28;20066;-86
2022/01/01 00:37:28;;;;;;;71.45;16.35;;;9.70;99.90;;;;;;5038342;28;20063;-86
2022/01/01 00:39:55;;;;;;;95.57;18.58;;;11.10;99.90;;;;;;5038312;28;20048;-86
2022/01/01 00:42:21;;;;;;;90.40;20.10;;;11.20;99.90;;;;;;5037976;28;20040;-86
2022/01/01 00:44:47;;;;;;;77.93;17.88;;;13.10;99.90;;;;;;5072782;28;20044;-86
2022/01/01 00:47:12;;;;;;;71.28;18.98;;;9.70;99.90;;;;;;5055570;28;20055;-85
2022/01/01 00:49:38;;;;;;;66.10;15.93;;;9.50;99.90;;;;;;5056743;28;20036;-86
2022/01/01 00:52:04;;;;;;;76.68;18.10;;;9.30;99.90;;;;;;5058552;28;20044;-85
2022/01/01 00:54:30;;;;;;;65.80;18.13;;;10.20;99.90;;;;;;5058338;28;20048;-86
2022/01/01 00:56:55;;;;;;;71.82;18.77;;;9.20;99.90;;;;;;5058696;28;20111;-86
2022/01/01 00:59:21;;;;;;;83.47;18.27;;;9.20;99.90;;;;;;5059963;28;20074;-86
2022/01/01 01:01:47;;;;;;;75.68;17.90;;;10.10;99.90;;;;;;5042952;28;20102;-86
2022/01/01 01:04:12;;;;;;;61.65;17.48;;;11.40;99.90;;;;;;5041806;28;20553;-85
2022/01/01 01:06:38;;;;;;;63.15;14.82;;;9.10;99.90;;;;;;5058198;28;20066;-86
2022/01/01 01:09:04;;;;;;;65.20;14.23;;;12.50;99.90;;;;;;5058222;28;20080;-86
2022/01/01 01:11:30;;;;;;;78.93;15.02;;;11.20;99.90;;;;;;5041472;28;20040;-86
2022/01/01 01:13:59;;;;;;;60.53;14.13;;;10.50;99.90;;;;;;5076360;28;20044;-86
2022/01/01 01:16:26;;;;;;;38.83;10.05;;;11.20;99.90;;;;;;5058433;28;20445;-86
2022/01/01 01:18:54;;;;;;;51.65;10.75;;;11.40;99.90;;;;;;5058214;28;20060;-86
2022/01/01 01:21:22;;;;;;;61.38;12.07;;;10.30;99.90;;;;;;5058164;28;20063;-86
2022/01/01 01:23:49;;;;;;;64.47;11.48;;;8.90;99.90;;;;;;5057992;28;20037;-86
2022/01/01 01:26:15;;;;;;;48.47;9.98;;;10.80;99.90;;;;;;5057262;28;20151;-86
2022/01/01 01:28:47;;;;;;;57.65;10.68;;;13.40;99.90;;;;;;5057563;28;20060;-86
2022/01/01 01:31:12;;;;;;;78.13;11.98;;;9.80;99.90;;;;;;5057803;28;20051;-86
2022/01/01 01:33:38;;;;;;;51.65;9.38;;;10.90;99.90;;;;;;5074519;28;20040;-85
2022/01/01 01:36:04;;;;;;;68.18;11.93;;;9.60;99.90;;;;;;5066755;28;20523;-86
2022/01/01 01:38:30;;;;;;;78.55;13.90;;;10.10;99.90;;;;;;5077580;28;20040;-86
2022/01/01 01:40:55;;;;;;;89.25;14.10;;;9.40;99.90;;;;;;5077664;28;20036;-86
2022/01/01 01:43:21;;;;;;;56.60;11.45;;;13.30;99.90;;;;;;5061030;28;20048;-86
2022/01/01 01:45:48;;;;;;;90.63;14.23;;;11.00;99.90;;;;;;5061334;28;20036;-86
2022/01/01 01:48:14;;;;;;;70.88;10.52;;;11.30;99.90;;;;;;5061544;28;20040;-86
2022/01/01 01:50:39;;;;;;;65.03;11.80;;;12.00;99.90;;;;;;5060858;28;20453;-86
2022/01/01 01:53:06;;;;;;;61.00;13.57;;;9.40;99.90;;;;;;5077559;28;20042;-86
2022/01/01 01:55:32;;;;;;;60.65;12.52;;;11.40;99.90;;;;;;5077822;28;20407;-86
2022/01/01 01:57:58;;;;;;;73.68;11.52;;;9.60;99.90;;;;;;5077644;28;20036;-86
2022/01/01 02:00:54;;;;;;;65.20;10.55;;;11.20;99.90;;;;;;5076461;28;20048;-86
2022/01/01 02:03:16;;;;;;;41.58;8.73;;;10.00;99.90;;;;;;5077445;28;20051;-86
2022/01/01 02:05:43;;;;;;;56.42;10.00;;;12.00;99.90;;;;;;5060714;28;20506;-86
2022/01/01 02:08:10;;;;;;;52.47;8.65;;;10.40;99.90;;;;;;5077535;28;20048;-86
2022/01/01 02:10:36;;;;;;;35.30;8.77;;;9.80;99.90;;;;;;5077231;28;20044;-86
2022/01/01 02:13:11;;;;;;;78.78;10.75;;;9.10;99.90;;;;;;5077073;28;20090;-86
2022/01/01 02:15:59;;;;;;;60.80;9.20;;;11.00;99.90;;;;;;5060337;28;20123;-86
2022/01/01 02:18:25;;;;;;;72.07;10.48;;;11.80;99.90;;;;;;5077066;28;20055;-86
2022/01/01 02:20:51;;;;;;;53.95;9.15;;;9.60;99.90;;;;;;5060554;28;20040;-86
2022/01/01 02:23:18;;;;;;;70.32;9.93;;;10.90;99.90;;;;;;5060257;28;20040;-86
2022/01/01 02:25:48;;;;;;;62.13;10.93;;;11.60;99.90;;;;;;5060424;28;20052;-86
2022/01/01 02:28:14;;;;;;;67.35;9.40;;;12.00;99.90;;;;;;5077018;28;20040;-86
2022/01/01 02:30:39;;;;;;;56.60;9.10;;;9.70;99.90;;;;;;5095259;28;20048;-86
2022/01/01 02:33:05;;;;;;;55.30;9.00;;;10.70;99.90;;;;;;5076169;28;20124;-86
2022/01/01 02:35:31;;;;;;;49.30;8.68;;;13.00;99.90;;;;;;5074838;28;20051;-86
2022/01/01 02:37:57;;;;;;;63.08;10.15;;;9.40;99.90;;;;;;5093864;28;20047;-86
2022/01/01 02:40:22;;;;;;;51.28;8.98;;;9.60;99.90;;;;;;5059881;28;20499;-86
2022/01/01 02:42:48;;;;;;;68.15;9.95;;;10.10;99.90;;;;;;5059770;28;20044;-86
2022/01/01 02:45:15;;;;;;;63.75;10.38;;;9.70;99.90;;;;;;5076382;28;20048;-86
2022/01/01 02:47:41;;;;;;;59.72;9.93;;;10.10;99.90;;;;;;5059846;28;20047;-86
2022/01/01 02:50:08;;;;;;;52.10;9.23;;;10.80;99.90;;;;;;5056404;28;20093;-86
2022/01/01 02:52:34;;;;;;;69.95;9.38;;;9.10;99.90;;;;;;5056245;28;20048;-86
2022/01/01 02:55:00;;;;;;;73.00;11.23;;;12.90;99.90;;;;;;5039634;28;20415;-86
2022/01/01 02:57:26;;;;;;;103.80;12.85;;;12.30;99.90;;;;;;5056408;28;20753;-86
2022/01/01 02:59:51;;;;;;;78.75;10.30;;;10.90;99.90;;;;;;5043633;28;20484;-86
2022/01/01 03:02:17;;;;;;;87.90;11.52;;;9.10;99.90;;;;;;5094687;28;20047;-86
2022/01/01 03:04:43;;;;;;;91.30;11.88;;;9.00;99.90;;;;;;5076082;28;20040;-86
2022/01/01 03:07:09;;;;;;;92.05;12.13;;;10.70;99.90;;;;;;5076974;28;20040;-86
2022/01/01 03:09:34;;;;;;;65.10;10.93;;;11.80;99.90;;;;;;5075979;28;20177;-86
2022/01/01 03:12:02;;;;;;;61.78;9.25;;;10.40;99.90;;;;;;5075444;28;20110;-86
2022/01/01 03:14:28;;;;;;;75.68;10.05;;;9.10;99.90;;;;;;5059221;28;20396;-86
2022/01/01 03:16:55;;;;;;;82.70;11.40;;;8.90;99.90;;;;;;5075913;28;20043;-86
2022/01/01 03:19:21;;;;;;;91.30;11.43;;;10.90;99.90;;;;;;5076697;28;20040;-86
2022/01/01 03:21:47;;;;;;;87.68;11.75;;;9.40;99.90;;;;;;5075998;28;20811;-86
2022/01/01 03:24:13;;;;;;;86.28;10.93;;;9.90;99.90;;;;;;5076017;28;20056;-86
2022/01/01 03:26:38;;;;;;;90.72;11.50;;;8.80;99.90;;;;;;5075881;28;20036;-86
2022/01/01 03:29:04;;;;;;;76.28;10.80;;;9.30;99.90;;;;;;5075670;28;20044;-86
2022/01/01 03:31:30;;;;;;;77.30;11.77;;;9.30;99.90;;;;;;5059273;28;20392;-86
2022/01/01 03:33:58;;;;;;;65.22;10.07;;;10.90;99.90;;;;;;5075567;28;20055;-86
2022/01/01 03:36:24;;;;;;;64.28;9.23;;;11.00;99.90;;;;;;5092560;28;20056;-86
2022/01/01 03:38:50;;;;;;;61.70;10.73;;;11.20;99.90;;;;;;5075615;28;20047;-86
2022/01/01 03:41:15;;;;;;;83.50;11.85;;;11.30;99.90;;;;;;5057870;28;20509;-87
2022/01/01 03:43:41;;;;;;;66.93;10.15;;;12.70;99.90;;;;;;5075232;28;20039;-86
2022/01/01 03:46:07;;;;;;;80.07;11.43;;;11.40;99.90;;;;;;5059077;28;20130;-87
2022/01/01 03:48:32;;;;;;;66.35;10.15;;;12.20;99.90;;;;;;5075712;28;20028;-86
2022/01/01 03:50:58;;;;;;;55.10;9.52;;;12.00;99.90;;;;;;5059069;28;20042;-86
2022/01/01 03:53:25;;;;;;;76.03;10.70;;;9.20;99.90;;;;;;5075276;28;20504;-86
2022/01/01 03:55:51;;;;;;;54.08;9.85;;;9.10;99.90;;;;;;5058614;28;20046;-86
2022/01/01 03:58:17;;;;;;;58.40;9.00;;;11.30;99.90;;;;;;5058558;28;20039;-86
2022/01/01 04:00:43;;;;;;;45.22;9.57;;;11.20;99.90;;;;;;5058549;28;20047;-86
2022/01/01 04:03:10;;;;;;;65.32;11.13;;;9.30;99.90;;;;;;5058698;28;20047;-86
2022/01/01 04:05:37;;;;;;;43.05;8.18;;;10.60;99.90;;;;;;5075183;28;20484;-87
2022/01/01 04:08:04;;;;;;;42.00;9.63;;;9.40;99.90;;;;;;5058594;28;20080;-86
2022/01/01 04:10:31;;;;;;;41.05;8.30;;;11.60;99.90;;;;;;5075636;28;20040;-86
2022/01/01 04:12:59;;;;;;;37.50;8.23;;;9.90;99.90;;;;;;5075386;28;20063;-86
2022/01/01 04:15:27;;;;;;;24.20;6.85;;;11.90;99.90;;;;;;5075466;28;20087;-86
2022/01/01 04:17:58;;;;;;;30.83;8.38;;;12.10;99.90;;;;;;5075255;28;20052;-86
2022/01/01 04:20:24;;;;;;;62.33;11.82;;;10.20;99.90;;;;;;5075660;28;20141;-86
2022/01/01 04:22:52;;;;;;;54.53;11.00;;;10.10;99.90;;;;;;5075308;28;20048;-86
2022/01/01 04:25:18;;;;;;;40.35;10.77;;;11.80;99.90;;;;;;5058347;28;20097;-86
2022/01/01 04:27:43;;;;;;;51.63;10.85;;;13.80;99.90;;;;;;5059024;28;20127;-86
2022/01/01 04:30:09;;;;;;;55.95;12.35;;;13.30;99.90;;;;;;5059350;28;20129;-86
2022/01/01 04:32:35;;;;;;;58.97;12.80;;;10.70;99.90;;;;;;5077590;28;20043;-86
2022/01/01 04:35:00;;;;;;;54.10;11.80;;;11.90;99.90;;;;;;5079365;28;20153;-86
2022/01/01 04:37:26;;;;;;;76.55;13.85;;;13.00;99.90;;;;;;5060774;28;20487;-86
2022/01/01 04:39:58;;;;;;;65.22;13.98;;;11.90;99.90;;;;;;5078843;28;20047;-86
2022/01/01 04:42:24;;;;;;;79.05;13.52;;;10.70;99.90;;;;;;5079035;28;20051;-86
2022/01/01 04:44:49;;;;;;;69.07;12.80;;;12.60;99.90;;;;;;5078737;28;20062;-86
2022/01/01 04:47:15;;;;;;;52.05;13.88;;;10.80;99.90;;;;;;5062223;28;20044;-86
2022/01/01 04:49:41;;;;;;;44.45;10.38;;;10.70;99.90;;;;;;5077457;28;20028;-86
2022/01/01 04:52:06;;;;;;;34.88;10.63;;;12.10;99.90;;;;;;5078378;28;20480;-87
2022/01/01 04:54:34;;;;;;;43.00;9.20;;;10.10;99.90;;;;;;5078662;28;20040;-86
2022/01/01 04:56:59;;;;;;;28.30;9.63;;;11.90;99.90;;;;;;5096938;28;20377;-86
2022/01/01 04:59:25;;;;;;;38.53;10.43;;;11.60;99.90;;;;;;5078556;28;20051;-86
2022/01/01 05:01:51;;;;;;;33.95;10.73;;;10.70;99.90;;;;;;5096940;28;20036;-86
2022/01/01 05:04:17;;;;;;;47.42;14.00;;;10.30;99.90;;;;;;5095411;28;20149;-86
2022/01/01 05:06:43;;;;;;;73.38;17.75;;;10.90;99.90;;;;;;5061729;28;20040;-86
2022/01/01 05:09:09;;;;;;;54.33;13.57;;;13.60;99.90;;;;;;5078353;28;20075;-86
2022/01/01 05:11:35;;;;;;;62.53;15.25;;;13.80;99.90;;;;;;5061456;28;20467;-86
2022/01/01 05:14:00;;;;;;;70.22;16.10;;;11.00;99.90;;;;;;5061853;28;20101;-86
2022/01/01 05:16:26;;;;;;;42.15;12.98;;;11.60;99.90;;;;;;5095141;28;20488;-86
2022/01/01 05:18:52;;;;;;;44.08;13.15;;;13.50;99.90;;;;;;5061510;28;20120;-86
2022/01/01 05:21:17;;;;;;;38.95;11.70;;;11.80;99.90;;;;;;5061467;28;20040;-86
2022/01/01 05:23:43;;;;;;;60.08;15.82;;;12.70;99.90;;;;;;5061697;28;20051;-86
2022/01/01 05:26:09;;;;;;;42.85;11.95;;;13.60;99.90;;;;;;5078057;28;20035;-86
2022/01/01 05:28:35;;;;;;;63.65;13.23;;;12.50;99.90;;;;;;5078051;28;20047;-86
2022/01/01 05:31:00;;;;;;;62.45;13.57;;;10.90;99.90;;;;;;5094817;28;20454;-86
2022/01/01 05:33:26;;;;;;;67.80;13.73;;;13.40;99.90;;;;;;5077714;28;20043;-86
2022/01/01 05:35:52;;;;;;;61.35;13.20;;;10.20;99.90;;;;;;5077414;28;20072;-86
2022/01/01 05:38:17;;;;;;;47.90;12.32;;;14.00;99.90;;;;;;5077343;28;20060;-86
2022/01/01 05:40:43;;;;;;;59.70;13.25;;;14.10;99.90;;;;;;5096184;28;20062;-86
2022/01/01 05:43:13;;;;;;;59.30;12.73;;;13.70;99.90;;;;;;5094504;28;20040;-86
2022/01/01 05:45:42;;;;;;;44.78;9.30;;;13.20;99.90;;;;;;5094724;28;20048;-86
2022/01/01 05:48:08;;;;;;;38.78;9.55;;;13.80;99.90;;;;;;5077660;28;20043;-86
2022/01/01 05:50:34;;;;;;;37.10;8.32;;;10.50;99.90;;;;;;5077759;28;20039;-86
2022/01/01 05:53:00;;;;;;;49.85;8.88;;;12.80;99.90;;;;;;5077363;28;20837;-86
2022/01/01 05:55:26;;;;;;;42.17;9.10;;;13.40;99.90;;;;;;5077328;28;20120;-87
2022/01/01 05:57:51;;;;;;;53.25;9.55;;;11.50;99.90;;;;;;5076307;28;20052;-86
2022/01/01 06:00:17;;;;;;;52.92;8.73;;;10.20;99.90;;;;;;5077597;28;20130;-86
2022/01/01 06:02:43;;;;;;;36.10;8.23;;;10.90;99.90;;;;;;5077673;28;20150;-87
2022/01/01 06:05:10;;;;;;;40.85;8.80;;;11.10;99.90;;;;;;5077507;28;20045;-86
2022/01/01 06:07:36;;;;;;;39.28;9.57;;;11.30;99.90;;;;;;5076986;28;20084;-86
2022/01/01 06:10:03;;;;;;;44.13;9.68;;;11.20;99.90;;;;;;5077198;28;20101;-86
2022/01/01 06:12:29;;;;;;;37.05;8.15;;;12.00;99.90;;;;;;5060304;28;20040;-87
2022/01/01 06:14:54;;;;;;;33.60;8.43;;;12.90;99.90;;;;;;5077202;28;20044;-86
2022/01/01 06:17:20;;;;;;;33.63;6.97;;;12.80;99.90;;;;;;5060521;28;20051;-86
2022/01/01 06:19:46;;;;;;;43.28;10.30;;;12.50;99.90;;;;;;5095411;28;20122;-86
2022/01/01 06:22:13;;;;;;;47.90;11.18;;;12.50;99.90;;;;;;5076965;28;20055;-86
2022/01/01 06:24:39;;;;;;;35.03;8.60;;;13.60;99.90;;;;;;5060179;28;20039;-87
2022/01/01 06:27:05;;;;;;;34.63;8.77;;;11.20;99.90;;;;;;5076737;28;20042;-87
2022/01/01 06:29:31;;;;;;;30.60;9.77;;;11.30;99.90;;;;;;5076735;28;20048;-86
2022/01/01 06:31:57;;;;;;;29.35;7.88;;;12.00;99.90;;;;;;5060390;28;20098;-86
2022/01/01 06:34:22;;;;;;;40.42;10.55;;;10.70;99.90;;;;;;5060298;28;20084;-86
2022/01/01 06:36:51;;;;;;;37.70;9.13;;;13.50;99.90;;;;;;5076564;28;20044;-86
2022/01/01 06:39:17;;;;;;;30.05;8.68;;;11.00;99.90;;;;;;5087536;28;20060;-86
2022/01/01 06:41:43;;;;;;;31.60;9.23;;;10.60;99.90;;;;;;5073022;28;20059;-87
2022/01/01 06:44:09;;;;;;;24.05;7.43;;;13.60;99.90;;;;;;5074597;28;20064;-86
2022/01/01 06:46:34;;;;;;;34.53;9.30;;;12.90;99.90;;;;;;5056292;28;20051;-86
2022/01/01 06:49:00;;;;;;;37.75;9.98;;;11.10;99.90;;;;;;5073541;28;20040;-86
2022/01/01 06:51:26;;;;;;;54.22;12.65;;;10.90;99.90;;;;;;5072862;28;20053;-87
2022/01/01 06:53:51;;;;;;;25.13;9.13;;;12.60;99.90;;;;;;5073255;28;20048;-86
2022/01/01 06:56:17;;;;;;;36.25;11.10;;;13.20;99.90;;;;;;5056269;28;20048;-86
2022/01/01 06:58:44;;;;;;;39.75;13.05;;;13.30;99.90;;;;;;5073595;28;20074;-86
2022/01/01 07:01:10;;;;;;;41.75;11.43;;;13.30;99.90;;;;;;5072892;28;20091;-86
2022/01/01 07:03:36;;;;;;;36.75;10.25;;;12.40;99.90;;;;;;5072449;28;20098;-87
2022/01/01 07:06:02;;;;;;;35.65;9.73;;;13.80;99.90;;;;;;5084864;28;20040;-87
2022/01/01 07:08:28;;;;;;;29.73;11.57;;;12.50;99.90;;;;;;5072581;28;20037;-87
2022/01/01 07:10:54;;;;;;;46.03;12.93;;;12.80;99.90;;;;;;5056312;28;20122;-87
2022/01/01 07:13:20;;;;;;;44.20;12.35;;;13.40;99.90;;;;;;5055839;28;20047;-87
2022/01/01 07:15:45;;;;;;;41.25;11.93;;;13.50;99.90;;;;;;5072635;28;20082;-86
2022/01/01 07:21:02;;;;;;;33.00;11.00;;;14.10;99.90;;;;;;5072778;28;20146;-86
2022/01/01 07:23:30;;;;;;;47.25;14.73;;;12.60;99.90;;;;;;5073957;28;20115;-86
2022/01/01 07:25:56;;;;;;;55.67;16.00;;;13.80;99.90;;;;;;5072428;28;20101;-86
2022/01/01 07:28:22;;;;;;;50.92;14.15;;;13.50;99.90;;;;;;5056107;28;20464;-86
2022/01/01 07:30:47;;;;;;;46.25;14.43;;;11.90;99.90;;;;;;5072478;28;20555;-86
2022/01/01 07:33:14;;;;;;;41.45;13.75;;;12.80;99.90;;;;;;5073213;28;20428;-86
2022/01/01 07:35:40;;;;;;;48.28;14.15;;;10.80;99.90;;;;;;5072234;28;20044;-86
2022/01/01 07:38:06;;;;;;;34.10;11.20;;;13.70;99.90;;;;;;5074745;28;20067;-86
2022/01/01 07:40:34;;;;;;;18.25;9.32;;;12.60;99.90;;;;;;5059093;28;20040;-86
2022/01/01 07:43:01;;;;;;;21.75;9.52;;;11.10;99.90;;;;;;5075270;28;20040;-86
2022/01/01 07:45:27;;;;;;;41.72;14.98;;;12.60;99.90;;;;;;5068091;28;20500;-86
2022/01/01 07:47:53;;;;;;;31.17;10.75;;;11.40;99.90;;;;;;5055800;28;20058;-86
2022/01/01 07:50:19;;;;;;;29.98;12.27;;;11.20;99.90;;;;;;5072193;28;20127;-86
2022/01/01 07:52:44;;;;;;;35.97;13.20;;;11.10;99.90;;;;;;5055390;28;20614;-86
2022/01/01 07:55:10;;;;;;;34.05;11.73;;;11.20;99.90;;;;;;5072735;28;20048;-86
2022/01/01 07:57:36;;;;;;;44.85;14.65;;;12.50;99.90;;;;;;5072120;28;20059;-86
2022/01/01 08:00:04;;;;;;;41.47;13.20;;;11.00;99.90;;;;;;5055624;28;20040;-86
2022/01/01 08:02:29;;;;;;;39.78;13.40;;;11.20;99.90;;;;;;5055467;28;20052;-85
2022/01/01 08:04:55;;;;;;;37.45;12.85;;;11.00;99.90;;;;;;5074024;28;20041;-86
2022/01/01 08:07:21;;;;;;;35.83;13.50;;;13.20;99.90;;;;;;5071988;28;20048;-86
2022/01/01 08:09:46;;;;;;;27.02;10.52;;;14.00;99.90;;;;;;5055932;28;20037;-86
2022/01/01 08:12:12;;;;;;;52.72;18.05;;;12.20;99.90;;;;;;5061321;28;20093;-87
2022/01/01 08:14:38;;;;;;;29.23;11.75;;;11.30;99.90;;;;;;5092108;28;20442;-86
2022/01/01 08:17:06;;;;;;;33.65;14.65;;;11.70;99.90;;;;;;5058795;28;20056;-87
2022/01/01 08:19:32;;;;;;;39.00;14.60;;;11.90;99.90;;;;;;5075549;28;20040;-87
2022/01/01 08:21:59;;;;;;;39.97;14.45;;;12.10;99.90;;;;;;5076128;28;20044;-87
2022/01/01 08:24:25;;;;;;;33.60;12.35;;;;;;;;;;5058443;28;20044;-87
2022/01/01 08:26:51;;;;;;;29.65;10.98;;;13.10;99.90;;;;;;5075680;28;20054;-86
2022/01/01 08:29:19;;;;;;;38.30;14.02;;;11.60;99.90;;;;;;5075158;28;20040;-86
2022/01/01 08:31:44;;;;;;;27.42;9.18;;;11.70;99.90;;;;;;5075268;28;20072;-86
2022/01/01 08:34:10;;;;;;;25.63;9.85;;;13.30;99.90;;;;;;5059349;28;20083;-86
2022/01/01 08:36:36;;;;;;;27.67;11.02;;;13.30;99.90;;;;;;5074920;28;20407;-87
2022/01/01 08:39:05;;;;;;;29.40;11.75;;;12.60;99.90;;;;;;5058488;28;20048;-86
2022/01/01 08:41:34;;;;;;;34.00;11.35;;;11.90;99.90;;;;;;5058490;28;20404;-87
2022/01/01 08:44:00;;;;;;;30.90;11.27;;;12.70;99.90;;;;;;5074862;28;20100;-86
2022/01/01 08:46:25;;;;;;;26.63;10.18;;;12.40;99.90;;;;;;5074788;28;20115;-86
2022/01/01 08:48:52;;;;;;;21.55;9.77;;;12.20;99.90;;;;;;5058229;28;20144;-86
2022/01/01 08:51:19;;;;;;;27.67;11.82;;;12.60;99.90;;;;;;5058441;28;20823;-87
2022/01/01 08:53:46;;;;;;;36.40;12.65;;;12.40;99.90;;;;;;5058168;28;20047;-86
2022/01/01 08:56:13;;;;;;;37.30;13.13;;;12.30;99.90;;;;;;5075141;28;20036;-86
2022/01/01 08:58:40;;;;;;;29.38;11.30;;;13.70;99.90;;;;;;5074807;28;20071;-86
2022/01/01 09:01:07;;;;;;;24.27;9.65;;;12.30;99.90;;;;;;5074899;28;20044;-86
2022/01/01 09:03:35;;;;;;;18.17;8.75;;;13.60;99.90;;;;;;5075041;28;20044;-86
2022/01/01 09:06:02;;;;;;;21.30;8.55;;;12.60;99.90;;;;;;5074641;28;20075;-87
2022/01/01 09:08:29;;;;;;;24.27;9.07;;;12.50;99.90;;;;;;5058095;28;20123;-86
2022/01/01 09:10:55;;;;;;;26.92;10.63;;;12.40;99.90;;;;;;5077116;28;20411;-86
2022/01/01 09:13:21;;;;;;;28.13;11.57;;;11.50;99.90;;;;;;5078205;28;20052;-86
2022/01/01 09:15:48;;;;;;;23.48;9.90;;;11.50;99.90;;;;;;5095713;28;20083;-86
2022/01/01 09:18:14;;;;;;;26.67;10.45;;;12.10;99.90;;;;;;5078343;28;20130;-87
2022/01/01 09:20:39;;;;;;;23.63;10.52;;;11.70;99.90;;;;;;5094193;28;20602;-87
2022/01/01 09:23:05;;;;;;;31.50;11.32;;;13.40;99.90;;;;;;5096374;28;20059;-87
2022/01/01 09:25:35;;;;;;;21.98;10.05;;;11.50;99.90;;;;;;5095175;28;20047;-87
2022/01/01 09:28:01;;;;;;;35.58;12.45;;;11.50;99.90;;;;;;5061177;28;20036;-87
2022/01/01 09:30:27;;;;;;;22.85;11.23;;;12.20;99.90;;;;;;5078033;28;20055;-87
2022/01/01 09:32:53;;;;;;;35.90;15.23;;;12.40;99.90;;;;;;5077724;28;20040;-87
2022/01/01 09:35:19;;;;;;;32.00;13.93;;;12.70;99.90;;;;;;5096350;28;20127;-87
2022/01/01 09:37:46;;;;;;;40.80;15.65;;;11.80;99.90;;;;;;5077783;28;20044;-87
2022/01/01 09:40:12;;;;;;;28.98;13.25;;;12.40;99.90;;;;;;5057619;28;20127;-86
2022/01/01 09:42:39;;;;;;;27.13;11.40;;;13.20;99.90;;;;;;5057431;28;20047;-86
2022/01/01 09:45:06;;;;;;;27.55;12.10;;;11.80;99.90;;;;;;5057217;28;20051;-86
2022/01/01 09:47:32;;;;;;;39.97;15.48;;;12.60;99.90;;;;;;5057638;28;20040;-86
2022/01/01 09:49:58;;;;;;;18.20;8.88;;;12.90;99.90;;;;;;5058039;28;20135;-86
2022/01/01 09:52:24;;;;;;;23.42;10.77;;;12.30;99.90;;;;;;5075561;28;20443;-86
2022/01/01 09:54:51;;;;;;;25.13;10.82;;;13.20;99.90;;;;;;5057399;28;20101;-86
2022/01/01 09:57:16;;;;;;;35.05;15.65;;;11.90;99.90;;;;;;5057447;28;20049;-86
2022/01/01 09:59:42;;;;;;;32.33;14.18;;;12.30;99.90;;;;;;5057898;28;20036;-86
2022/01/01 10:02:08;;;;;;;32.15;13.82;;;12.40;99.90;;;;;;5040742;28;20394;-86
2022/01/01 10:04:43;;;;;;;31.35;14.70;;;13.00;99.90;;;;;;5057276;28;20123;-86
2022/01/01 10:07:09;;;;;;;36.75;14.52;;;13.00;99.90;;;;;;5057583;28;20393;-86
2022/01/01 10:09:37;;;;;;;34.67;12.55;;;13.60;99.90;;;;;;5040331;28;20043;-84
2022/01/01 10:12:06;;;;;;;18.52;10.23;;;12.60;99.90;;;;;;5057594;28;20089;-86
2022/01/01 10:14:40;;;;;;;34.97;15.07;;;12.00;99.90;;;;;;5057153;28;20052;-86
2022/01/01 10:17:18;;;;;;;23.92;11.23;;;12.90;99.90;;;;;;5057301;28;20063;-86
2022/01/01 10:19:45;;;;;;;29.48;12.43;;;12.00;99.90;;;;;;5074779;28;20080;-86
2022/01/01 10:22:14;;;;;;;35.08;13.20;;;13.00;99.90;;;;;;5056176;28;20048;-86
2022/01/01 10:27:42;;;;;;;26.38;12.38;;;13.40;99.90;;;;;;5055187;28;20083;-86
2022/01/01 10:30:09;;;;;;;31.88;15.23;;;13.20;99.90;;;;;;5056520;28;20060;-86
2022/01/01 10:32:35;;;;;;;30.05;10.90;;;12.40;99.90;;;;;;5056625;28;20504;-86
2022/01/01 10:35:02;;;;;;;32.97;13.82;;;13.10;99.90;;;;;;5057237;28;20044;-86
2022/01/01 10:37:29;;;;;;;24.98;9.63;;;12.60;99.90;;;;;;5057060;28;20110;-86
2022/01/01 10:39:55;;;;;;;23.13;9.35;;;13.00;99.90;;;;;;5056358;28;20088;-86
2022/01/01 10:42:21;;;;;;;25.92;10.02;;;12.60;99.90;;;;;;5076673;28;20056;-86
2022/01/01 10:44:50;;;;;;;16.33;8.95;;;12.70;99.90;;;;;;5076808;28;20046;-86
2022/01/01 10:47:25;;;;;;;18.33;9.52;;;12.80;99.90;;;;;;5060355;28;20097;-86
2022/01/01 10:50:03;;;;;;;24.52;11.07;;;13.30;99.90;;;;;;5076386;28;20075;-86
2022/01/01 10:52:30;;;;;;;24.95;11.32;;;13.00;99.90;;;;;;5059898;28;20036;-85
2022/01/01 10:55:00;;;;;;;22.25;8.48;;;12.90;99.90;;;;;;5076612;28;20105;-86
2022/01/01 10:57:34;;;;;;;21.58;8.20;;;13.20;99.90;;;;;;5059356;28;20040;-86
2022/01/01 11:00:13;;;;;;;14.95;7.75;;;12.50;99.90;;;;;;5076693;28;20552;-84
2022/01/01 11:02:44;;;;;;;25.00;8.60;;;12.50;99.90;;;;;;5076567;28;20044;-86
2022/01/01 11:05:10;;;;;;;18.60;8.80;;;13.10;99.90;;;;;;5056773;28;20048;-86
2022/01/01 11:07:38;;;;;;;16.63;8.40;;;12.70;99.90;;;;;;5039783;28;20078;-86
2022/01/01 11:10:04;;;;;;;16.63;8.13;;;13.00;99.90;;;;;;5068546;28;20048;-86
2022/01/01 11:12:30;;;;;;;13.93;7.15;;;12.80;99.90;;;;;;5076146;28;20044;-86
2022/01/01 11:14:59;;;;;;;21.20;10.60;;;11.90;99.90;;;;;;5075910;28;20396;-86
2022/01/01 11:17:25;;;;;;;19.25;8.38;;;12.60;99.90;;;;;;5059376;28;20039;-86
2022/01/01 11:19:51;;;;;;;21.83;7.78;;;12.40;99.90;;;;;;5075964;28;20040;-86
2022/01/01 11:22:18;;;;;;;17.88;9.77;;;12.30;99.90;;;;;;5093839;28;20155;-86
2022/01/01 11:24:45;;;;;;;19.17;7.70;;;12.70;99.90;;;;;;5094284;28;20071;-86
2022/01/01 11:27:12;;;;;;;13.50;7.93;;;12.80;99.90;;;;;;5059371;28;20040;-86
2022/01/01 11:29:48;;;;;;;19.10;7.90;;;14.00;99.90;;;;;;5076120;28;20177;-85
2022/01/01 11:32:16;;;;;;;21.17;8.02;;;13.20;99.90;;;;;;5059039;28;20040;-85
2022/01/01 11:34:46;;;;;;;17.73;7.38;;;12.60;99.90;;;;;;5092885;28;20040;-86
2022/01/01 11:37:14;;;;;;;18.20;7.72;;;12.40;99.90;;;;;;5074998;28;20040;-86
2022/01/01 11:39:41;;;;;;;14.38;6.85;;;12.70;99.90;;;;;;5075082;28;20052;-86
2022/01/01 11:42:11;;;;;;;13.52;7.55;;;12.60;99.90;;;;;;5075186;28;20044;-85
2022/01/01 11:44:36;;;;;;;13.18;7.63;;;12.30;99.90;;;;;;5059151;28;20079;-86
2022/01/01 11:47:06;;;;;;;18.42;8.05;;;14.30;99.90;;;;;;5075305;28;20078;-86
2022/01/01 11:49:33;;;;;;;20.20;9.20;;;12.90;99.90;;;;;;5060712;28;20040;-86
2022/01/01 11:52:00;;;;;;;18.02;8.43;;;12.80;99.90;;;;;;5077563;28;20040;-86
2022/01/01 11:54:31;;;;;;;13.05;7.22;;;12.80;99.90;;;;;;5060381;28;20123;-86
2022/01/01 11:57:05;;;;;;;19.55;7.53;;;13.10;99.90;;;;;;5060378;28;20054;-85
2022/01/01 11:59:38;;;;;;;16.20;7.55;;;12.50;99.90;;;;;;5076873;28;20534;-85
2022/01/01 12:02:05;;;;;;;15.07;7.55;;;12.60;99.90;;;;;;5059961;28;20043;-85
2022/01/01 12:04:33;;;;;;;19.02;8.25;;;12.80;99.90;;;;;;5077961;28;20040;-85
2022/01/01 12:07:12;;;;;;;16.60;8.52;;;13.00;99.90;;;;;;5077167;28;20051;-85
2022/01/01 12:10:01;;;;;;;18.70;7.80;;;13.10;99.90;;;;;;5077248;28;20040;-85
2022/01/01 12:12:56;;;;;;;19.30;8.48;;;12.90;99.90;;;;;;5060189;28;20047;-85
2022/01/01 12:15:31;;;;;;;17.63;8.52;;;13.20;99.90;;;;;;5056648;28;20550;-85
2022/01/01 12:18:06;;;;;;;16.83;7.50;;;13.10;99.90;;;;;;5056995;28;20053;-85
2022/01/01 12:20:36;;;;;;;19.90;8.38;;;13.10;99.90;;;;;;5039963;28;20052;-86
2022/01/01 12:23:05;;;;;;;17.23;8.60;;;13.00;99.90;;;;;;5056955;28;20044;-86
2022/01/01 12:25:33;;;;;;;22.85;9.73;;;12.80;99.90;;;;;;5057890;28;20045;-84
2022/01/01 12:28:04;;;;;;;17.20;8.13;;;13.00;99.90;;;;;;5040532;28;20045;-85
2022/01/01 12:30:32;;;;;;;21.95;10.43;;;13.20;99.90;;;;;;5040464;28;20045;-85
2022/01/01 12:32:58;;;;;;;20.27;10.30;;;13.20;99.90;;;;;;5040237;28;20045;-85
2022/01/01 12:35:40;;;;;;;25.25;9.60;;;13.50;99.90;;;;;;5056745;28;20511;-85
2022/01/01 12:38:08;;;;;;;21.67;10.00;;;13.30;99.90;;;;;;5074572;28;20052;-86